Time;durP1;ratioP1;P1;durP2;ratioP2;P2;SDS_P1;SDS_P2;PMS_P1;PMS_P2;Temp;Humidity;BMP_temperature;BMP_pressure;BME280_temperature;BME280_humidity;BME280_pressure;Samples;Min_cycle;Max_cycle;Signal;HPM_P1;HPM_P2
2022/09/27 00:00:50;;;;;;;12.00;10.90;;;;;;;18.80;100.00;100549.22;2079568;28;20188;-60
2022/09/27 00:01:51;;;;;;;11.70;10.73;;;;;;;18.82;100.00;100557.13;2078904;28;20248;-60
2022/09/27 00:02:51;;;;;;;12.17;11.07;;;;;;;18.84;100.00;100544.13;2079579;28;20189;-60
2022/09/27 00:03:54;;;;;;;11.80;10.70;;;;;;;18.85;100.00;100556.94;2079443;28;20238;-60
2022/09/27 00:04:55;;;;;;;11.80;10.70;;;;;;;18.82;100.00;100546.69;2078369;28;20294;-60
2022/09/27 00:06:10;;;;;;;10.90;9.97;;;;;;;18.83;100.00;100547.47;2079109;28;20416;-60
2022/09/27 00:07:11;;;;;;;10.70;9.80;;;;;;;18.82;100.00;100549.47;2079108;28;20196;-60
2022/09/27 00:08:11;;;;;;;10.47;9.47;;;;;;;18.78;100.00;100543.31;2079075;28;20430;-60
2022/09/27 00:09:12;;;;;;;9.40;8.60;;;;;;;18.77;100.00;100543.81;2079074;28;20244;-60
2022/09/27 00:10:12;;;;;;;10.17;9.27;;;;;;;18.76;100.00;100528.22;2080130;28;20271;-60
2022/09/27 00:11:34;;;;;;;9.47;8.57;;;;;;;18.81;100.00;100535.94;2079172;28;20185;-60
2022/09/27 00:12:35;;;;;;;9.07;8.27;;;;;;;18.42;100.00;100470.09;2078691;28;20177;-60
2022/09/27 00:13:36;;;;;;;9.30;8.50;;;;;;;18.77;100.00;100530.53;2080115;28;20420;-60
2022/09/27 00:14:36;;;;;;;10.03;9.03;;;;;;;18.77;100.00;100535.38;2077935;28;20944;-60
2022/09/27 00:15:37;;;;;;;8.97;8.27;;;;;;;18.78;100.00;100537.69;2079445;28;20195;-60
2022/09/27 00:16:39;;;;;;;9.60;8.77;;;;;;;18.79;100.00;100532.84;2078900;28;20192;-60
2022/09/27 00:17:40;;;;;;;9.53;8.73;;;;;;;18.35;100.00;100468.47;2078987;28;20275;-60
2022/09/27 00:18:40;;;;;;;10.13;9.17;;;;;;;18.53;100.00;100515.16;2078351;28;20511;-60
2022/09/27 00:19:41;;;;;;;10.37;9.37;;;;;;;18.75;100.00;100544.28;2078784;28;20670;-60
2022/09/27 00:20:41;;;;;;;10.13;9.23;;;;;;;18.77;100.00;100541.75;2079339;28;20188;-60
2022/09/27 00:21:42;;;;;;;10.10;9.20;;;;;;;18.79;100.00;100544.09;2079980;28;20564;-60
2022/09/27 00:22:42;;;;;;;9.83;8.93;;;;;;;18.77;100.00;100541.75;2079361;28;20302;-60
2022/09/27 00:23:43;;;;;;;9.53;8.70;;;;;;;18.78;100.00;100543.31;2079541;28;20685;-60
2022/09/27 00:24:43;;;;;;;9.60;8.80;;;;;;;18.77;100.00;100541.00;2079064;28;20193;-60
2022/09/27 00:25:57;;;;;;;10.33;9.43;;;;;;;18.78;100.00;100542.53;2079281;28;20184;-60
2022/09/27 00:26:58;;;;;;;10.83;9.73;;;;;;;18.75;100.00;100540.69;2079046;28;20202;-60
2022/09/27 00:27:58;;;;;;;10.10;9.20;;;;;;;18.72;100.00;100530.47;2079012;28;20447;-60
2022/09/27 00:28:59;;;;;;;11.17;10.07;;;;;;;18.73;100.00;100534.81;2078942;28;20215;-60
2022/09/27 00:29:59;;;;;;;10.83;9.77;;;;;;;18.75;100.00;100532.28;2078267;28;20205;-60
2022/09/27 00:31:00;;;;;;;10.50;9.60;;;;;;;18.75;100.00;100530.25;2079402;28;20233;-60
2022/09/27 00:32:00;;;;;;;10.93;9.93;;;;;;;18.34;100.00;100463.34;2079904;28;20186;-60
2022/09/27 00:33:01;;;;;;;10.30;9.40;;;;;;;18.75;100.00;100538.69;2079405;28;20200;-60
2022/09/27 00:34:02;;;;;;;10.07;9.17;;;;;;;18.75;100.00;100526.66;2079159;28;20188;-60
2022/09/27 00:35:03;;;;;;;11.10;10.00;;;;;;;18.72;100.00;100534.03;2078801;28;20208;-60
2022/09/27 00:36:05;;;;;;;10.87;9.93;;;;;;;18.68;100.00;100536.28;2078922;28;20540;-60
2022/09/27 00:37:06;;;;;;;10.20;9.40;;;;;;;18.64;100.00;100512.50;2078582;28;20434;-60
2022/09/27 00:38:06;;;;;;;10.57;9.67;;;;;;;18.69;100.00;100508.97;2078641;28;20524;-60
2022/09/27 00:39:08;;;;;;;10.73;9.73;;;;;;;18.34;100.00;100455.72;2078722;28;20431;-60
2022/09/27 00:40:09;;;;;;;10.00;9.10;;;;;;;18.66;100.00;100495.91;2079840;28;20586;-60
2022/09/27 00:41:19;;;;;;;10.30;9.37;;;;;;;18.71;100.00;100498.81;2079607;28;20474;-60
2022/09/27 00:42:19;;;;;;;10.23;9.33;;;;;;;18.73;100.00;100496.28;2079765;28;20192;-60
2022/09/27 00:43:22;;;;;;;10.70;9.70;;;;;;;18.74;100.00;100495.03;2079219;28;20526;-60
2022/09/27 00:44:26;;;;;;;10.10;9.20;;;;;;;18.74;100.00;100486.63;2078285;28;20720;-60
2022/09/27 00:45:26;;;;;;;9.83;8.97;;;;;;;18.74;100.00;100483.81;2079131;28;20470;-60
2022/09/27 00:46:33;;;;;;;10.77;9.70;;;;;;;18.71;100.00;100487.59;2079579;28;20446;-60
2022/09/27 00:47:46;;;;;;;10.13;9.23;;;;;;;18.72;100.00;100503.16;2078912;28;20185;-60
2022/09/27 00:48:51;;;;;;;10.20;9.30;;;;;;;18.72;100.00;100494.75;2078905;28;20576;-60
2022/09/27 00:50:21;;;;;;;11.00;10.00;;;;;;;18.75;100.00;100504.22;2079194;28;20482;-60
2022/09/27 00:51:21;;;;;;;9.87;8.87;;;;;;;18.73;100.00;100496.28;2075152;28;20447;-61
2022/09/27 00:52:28;;;;;;;10.47;9.50;;;;;;;18.73;100.00;100495.53;2079310;28;20451;-61
2022/09/27 00:53:45;;;;;;;10.60;9.60;;;;;;;18.67;100.00;100487.00;2079529;28;20193;-61
2022/09/27 00:54:49;;;;;;;10.00;9.00;;;;;;;18.71;100.00;100487.59;2079043;28;20505;-61
2022/09/27 00:55:56;;;;;;;10.17;9.17;;;;;;;18.77;100.00;100498.91;2079339;28;20798;-61
2022/09/27 00:56:58;;;;;;;10.37;9.37;;;;;;;18.72;100.00;100503.16;2079279;28;20504;-61
2022/09/27 00:57:59;;;;;;;10.33;9.27;;;;;;;18.72;100.00;100497.53;2078083;28;20955;-61
2022/09/27 00:59:13;;;;;;;10.23;9.33;;;;;;;18.53;100.00;100459.03;2079082;28;20562;-61
2022/09/27 01:00:15;;;;;;;10.80;9.77;;;;;;;18.75;100.00;100487.38;2079585;28;20450;-61
2022/09/27 01:01:16;;;;;;;10.30;9.33;;;;;;;18.69;100.00;100473.28;2079022;28;20439;-61
2022/09/27 01:02:17;;;;;;;10.67;9.67;;;;;;;18.22;100.00;100406.28;2079103;28;20451;-61
2022/09/27 01:04:02;;;;;;;9.93;9.03;;;;;;;18.72;100.00;100488.38;2078895;28;20949;-61
2022/09/27 01:05:05;;;;;;;10.17;8.97;;;;;;;18.67;100.00;100487.00;2078992;28;20192;-61
2022/09/27 01:06:08;;;;;;;9.93;9.13;;;;;;;18.63;100.00;100472.41;2079272;28;20493;-61
2022/09/27 01:07:08;;;;;;;9.10;8.20;;;;;;;18.69;100.00;100481.69;2078884;28;20478;-61
2022/09/27 01:08:09;;;;;;;9.80;8.80;;;;;;;18.71;100.00;100493.19;2079483;28;20543;-61
2022/09/27 01:09:10;;;;;;;10.23;8.90;;;;;;;18.74;100.00;100485.84;2080111;28;20574;-61
2022/09/27 01:10:12;;;;;;;9.53;8.63;;;;;;;18.76;100.00;100491.72;2080849;28;20185;-61
2022/09/27 01:11:50;;;;;;;9.30;8.40;;;;;;;18.79;100.00;100496.34;2081337;28;20427;-61
2022/09/27 01:12:59;;;;;;;8.80;8.10;;;;;;;18.75;100.00;100490.97;2079688;28;20431;-62
2022/09/27 01:14:17;;;;;;;9.07;8.17;;;;;;;18.66;100.00;100485.47;2080518;28;20519;-61
2022/09/27 01:15:48;;;;;;;8.90;8.00;;;;;;;18.73;100.00;100499.09;2080645;28;20439;-62
2022/09/27 01:17:26;;;;;;;8.37;7.57;;;;;;;18.70;100.00;100499.28;2080746;28;21119;-62
2022/09/27 01:18:41;;;;;;;9.23;8.33;;;;;;;18.67;100.00;100498.25;2079825;28;20781;-62
2022/09/27 01:19:56;;;;;;;8.43;7.70;;;;;;;18.67;100.00;100491.88;2080948;28;20526;-62
2022/09/27 01:21:21;;;;;;;9.77;8.27;;;;;;;18.66;100.00;100487.50;2079293;28;21038;-62
2022/09/27 01:22:25;;;;;;;8.30;7.60;;;;;;;18.65;100.00;100483.94;2080408;28;20478;-62
2022/09/27 01:23:51;;;;;;;8.47;7.67;;;;;;;18.64;100.00;100484.44;2080649;28;20444;-62
2022/09/27 01:25:09;;;;;;;8.77;7.90;;;;;;;18.60;100.00;100479.03;2080643;28;20439;-62
2022/09/27 01:26:15;;;;;;;8.47;7.73;;;;;;;18.58;100.00;100475.16;2080607;28;20805;-62
2022/09/27 01:27:34;;;;;;;8.97;8.07;;;;;;;18.58;100.00;100473.13;2080720;28;20419;-62
2022/09/27 01:28:37;;;;;;;8.73;8.03;;;;;;;18.60;100.00;100476.22;2080429;28;20459;-62
2022/09/27 01:29:52;;;;;;;8.93;8.13;;;;;;;18.59;100.00;100474.69;2080298;28;20427;-62
2022/09/27 01:30:56;;;;;;;10.00;8.57;;;;;;;18.55;100.00;100470.53;2080052;28;20420;-62
2022/09/27 01:32:11;;;;;;;8.80;7.90;;;;;;;18.60;100.00;100469.81;2080702;28;20426;-62
2022/09/27 01:33:44;;;;;;;9.13;8.43;;;;;;;18.58;100.00;100463.94;2080692;28;20454;-62
2022/09/27 01:34:57;;;;;;;7.73;7.03;;;;;;;18.59;100.00;100469.06;2079836;28;20443;-62
2022/09/27 01:36:16;;;;;;;8.77;7.87;;;;;;;18.60;100.00;100461.41;2080674;28;21067;-62
2022/09/27 01:37:28;;;;;;;8.80;7.43;;;;;;;18.59;100.00;100457.84;2080041;28;20793;-62
2022/09/27 01:38:33;;;;;;;8.53;7.73;;;;;;;18.65;100.00;100461.47;2080713;28;20528;-62
2022/09/27 01:39:50;;;;;;;10.27;7.90;;;;;;;18.64;100.00;100459.16;2080207;28;20552;-62
2022/09/27 01:41:04;;;;;;;8.90;8.00;;;;;;;18.63;100.00;100461.19;2080747;28;20435;-62
2022/09/27 01:42:18;;;;;;;8.43;7.63;;;;;;;18.62;100.00;100473.69;2080904;28;20544;-62
2022/09/27 01:43:32;;;;;;;8.93;7.97;;;;;;;18.59;100.00;100468.28;2081185;28;20422;-62
2022/09/27 01:44:44;;;;;;;8.07;7.33;;;;;;;18.67;100.00;100475.03;2080861;28;20920;-62
2022/09/27 01:45:48;;;;;;;8.87;8.00;;;;;;;18.68;100.00;100482.19;2080324;28;20936;-62
2022/09/27 01:46:54;;;;;;;9.70;7.20;;;;;;;18.68;100.00;100474.53;2081069;28;20430;-62
2022/09/27 01:47:58;;;;;;;9.00;8.17;;;;;;;18.68;100.00;100480.13;2080257;28;20486;-62
2022/09/27 01:49:05;;;;;;;8.93;8.17;;;;;;;18.67;100.00;100470.16;2080430;28;20467;-62
2022/09/27 01:50:14;;;;;;;8.70;7.90;;;;;;;18.67;100.00;100461.75;2080718;28;20443;-62
2022/09/27 01:51:19;;;;;;;9.00;8.10;;;;;;;18.64;100.00;100461.97;2080391;28;20427;-62
2022/09/27 01:52:26;;;;;;;8.63;7.83;;;;;;;18.21;100.00;100415.22;2080813;28;20439;-62
2022/09/27 01:53:40;;;;;;;10.03;8.00;;;;;;;18.61;100.00;100446.88;2080730;28;20960;-62
2022/09/27 01:54:47;;;;;;;8.20;7.50;;;;;;;18.63;100.00;100452.00;2080523;28;20436;-62
2022/09/27 01:55:51;;;;;;;9.00;8.10;;;;;;;18.64;100.00;100453.53;2080527;28;20431;-62
2022/09/27 01:56:56;;;;;;;8.73;8.00;;;;;;;18.64;100.00;100456.34;2080164;28;20447;-62
2022/09/27 01:58:11;;;;;;;8.47;7.73;;;;;;;18.65;100.00;100453.06;2080028;28;20442;-62
2022/09/27 01:59:21;;;;;;;8.30;7.53;;;;;;;18.67;100.00;100446.97;2080097;28;21029;-62
2022/09/27 02:00:22;;;;;;;8.53;7.83;;;;;;;18.48;100.00;100412.03;2080818;28;20434;-62
2022/09/27 02:01:25;;;;;;;8.63;7.83;;;;;;;18.66;100.00;100440.56;2080585;28;20423;-62
2022/09/27 02:02:30;;;;;;;8.20;7.50;;;;;;;18.66;100.00;100439.78;2080767;28;20669;-62
2022/09/27 02:03:41;;;;;;;8.40;7.60;;;;;;;18.66;100.00;100431.38;2080477;28;20471;-62
2022/09/27 02:04:46;;;;;;;8.43;7.73;;;;;;;18.53;100.00;100416.94;2080275;28;20443;-62
2022/09/27 02:06:01;;;;;;;8.43;7.63;;;;;;;18.69;100.00;100441.63;2080376;28;20446;-62
2022/09/27 02:07:10;;;;;;;8.17;7.47;;;;;;;18.28;100.00;100374.25;2079756;28;20438;-62
2022/09/27 02:08:33;;;;;;;8.10;7.40;;;;;;;18.69;100.00;100430.38;2079172;28;20593;-62
2022/09/27 02:09:47;;;;;;;8.67;7.80;;;;;;;18.69;100.00;100425.56;2080041;28;20458;-62
2022/09/27 02:10:50;;;;;;;8.53;7.30;;;;;;;18.68;100.00;100415.56;2080647;28;20970;-62
2022/09/27 02:12:01;;;;;;;8.33;7.53;;;;;;;18.69;100.00;100414.34;2080259;28;20496;-62
2022/09/27 02:13:13;;;;;;;8.30;7.50;;;;;;;18.68;100.00;100415.56;2079727;28;20544;-62
2022/09/27 02:14:19;;;;;;;8.53;7.77;;;;;;;18.67;100.00;100407.66;2079557;28;21059;-62
2022/09/27 02:15:20;;;;;;;8.23;7.53;;;;;;;18.67;100.00;100408.41;2080202;28;20443;-62
2022/09/27 02:16:42;;;;;;;8.87;8.07;;;;;;;18.64;100.00;100411.44;2080743;28;20462;-62
2022/09/27 02:18:06;;;;;;;8.40;7.70;;;;;;;18.56;100.00;100404.72;2080590;28;20181;-62
2022/09/27 02:19:15;;;;;;;8.23;7.53;;;;;;;18.52;100.00;100406.97;2079669;28;20421;-62
2022/09/27 02:20:29;;;;;;;9.63;8.67;;;;;;;18.48;100.00;100409.22;2079744;28;20671;-62
2022/09/27 02:21:44;;;;;;;9.27;8.37;;;;;;;18.49;100.00;100408.72;2079482;28;20443;-63
2022/09/27 02:22:58;;;;;;;9.50;8.60;;;;;;;18.52;100.00;100410.53;2080169;28;21166;-62
2022/09/27 02:24:03;;;;;;;8.93;8.13;;;;;;;18.54;100.00;100405.22;2080152;28;20449;-62
2022/09/27 02:25:22;;;;;;;9.20;8.30;;;;;;;18.54;100.00;100404.44;2079592;28;20430;-62
2022/09/27 02:26:41;;;;;;;9.13;8.33;;;;;;;18.50;100.00;100399.03;2080263;28;20437;-62
2022/09/27 02:27:45;;;;;;;8.47;7.77;;;;;;;18.56;100.00;100397.06;2079071;28;20449;-62
2022/09/27 02:28:45;;;;;;;9.43;8.63;;;;;;;18.56;100.00;100399.09;2079774;28;20475;-62
2022/09/27 02:29:53;;;;;;;9.13;8.10;;;;;;;18.57;100.00;100398.59;2079998;28;20442;-62
2022/09/27 02:30:54;;;;;;;8.67;7.97;;;;;;;18.61;100.00;100401.97;2080117;28;20189;-62
2022/09/27 02:31:55;;;;;;;9.13;8.17;;;;;;;18.64;100.00;100400.22;2080086;28;20502;-62
2022/09/27 02:32:55;;;;;;;9.20;8.30;;;;;;;18.65;100.00;100396.94;2079675;28;20427;-62
2022/09/27 02:34:03;;;;;;;9.40;8.40;;;;;;;18.67;100.00;100394.38;2080628;28;20209;-62
2022/09/27 02:35:15;;;;;;;8.80;8.00;;;;;;;18.65;100.00;100388.50;2080641;28;20231;-62
2022/09/27 02:36:16;;;;;;;9.00;8.10;;;;;;;18.65;100.00;100391.31;2079010;28;20471;-62
2022/09/27 02:37:17;;;;;;;8.93;8.13;;;;;;;18.58;100.00;100380.50;2079546;28;20429;-62
2022/09/27 02:38:18;;;;;;;9.60;8.70;;;;;;;18.65;100.00;100399.72;2080161;28;20213;-62
2022/09/27 02:39:19;;;;;;;9.10;8.20;;;;;;;18.66;100.00;100403.28;2079526;28;20187;-62
2022/09/27 02:40:20;;;;;;;9.20;7.90;;;;;;;18.29;100.00;100346.97;2080410;28;20454;-62
2022/09/27 02:41:21;;;;;;;10.20;8.70;;;;;;;18.68;100.00;100395.16;2079374;28;20538;-62
2022/09/27 02:42:22;;;;;;;8.73;8.03;;;;;;;17.93;100.00;100291.47;2080518;28;20277;-62
2022/09/27 02:43:27;;;;;;;9.20;8.40;;;;;;;18.69;100.00;100405.13;2080010;28;20427;-62
2022/09/27 02:44:29;;;;;;;9.13;8.13;;;;;;;18.66;100.00;100409.69;2079347;28;20176;-62
2022/09/27 02:45:54;;;;;;;9.10;8.30;;;;;;;18.27;100.00;100349.50;2079288;28;20440;-63
2022/09/27 02:47:07;;;;;;;10.10;9.10;;;;;;;18.65;100.00;100401.75;2072092;28;20481;-62
2022/09/27 02:48:16;;;;;;;9.43;8.53;;;;;;;18.64;100.00;100394.63;2079686;28;20445;-62
2022/09/27 02:49:41;;;;;;;9.70;8.90;;;;;;;18.17;100.00;100332.03;2079247;28;20878;-62
2022/09/27 02:51:02;;;;;;;10.03;9.03;;;;;;;18.55;100.00;100391.94;2080413;28;20447;-62
2022/09/27 02:52:11;;;;;;;11.57;8.83;;;;;;;18.50;100.00;100390.63;2080307;28;20983;-62
2022/09/27 02:53:21;;;;;;;9.57;8.77;;;;;;;18.08;100.00;100330.63;2080242;28;20450;-62
2022/09/27 02:54:30;;;;;;;9.20;8.40;;;;;;;18.53;100.00;100405.72;2079556;28;20439;-62
2022/09/27 02:56:05;;;;;;;10.33;9.43;;;;;;;18.55;100.00;100403.16;2080111;28;20451;-62
2022/09/27 02:57:05;;;;;;;10.60;9.60;;;;;;;18.55;100.00;100403.16;2079122;28;20430;-62
2022/09/27 02:58:14;;;;;;;9.80;8.90;;;;;;;18.49;100.00;100405.13;2079713;28;20437;-62
2022/09/27 02:59:36;;;;;;;9.70;8.90;;;;;;;18.48;100.00;100400.81;2079279;28;20851;-62
2022/09/27 03:01:23;;;;;;;10.20;9.20;;;;;;;18.44;100.00;100394.63;2080252;28;20421;-62
2022/09/27 03:02:37;;;;;;;10.07;9.17;;;;;;;18.46;100.00;100394.88;2079936;28;20457;-62
2022/09/27 03:03:53;;;;;;;10.00;9.10;;;;;;;18.50;100.00;100401.84;2080130;28;20441;-62
2022/09/27 03:04:58;;;;;;;10.53;9.00;;;;;;;18.32;100.00;100371.25;2080192;28;20429;-62
2022/09/27 03:06:05;;;;;;;11.97;9.10;;;;;;;18.50;100.00;100387.81;2080392;28;20534;-62
2022/09/27 03:07:06;;;;;;;10.10;9.00;;;;;;;18.50;100.00;100389.84;2080017;28;20442;-62
2022/09/27 03:08:06;;;;;;;9.87;8.87;;;;;;;18.53;100.00;100386.81;2079792;28;20458;-63
2022/09/27 03:09:44;;;;;;;9.40;8.60;;;;;;;18.55;100.00;100380.72;2079392;28;20472;-62
2022/09/27 03:10:45;;;;;;;10.13;9.23;;;;;;;18.57;100.00;100378.22;2079506;28;20180;-62
2022/09/27 03:11:45;;;;;;;10.50;9.50;;;;;;;18.58;100.00;100379.75;2080485;28;20446;-62
2022/09/27 03:12:46;;;;;;;10.33;9.33;;;;;;;18.19;100.00;100317.53;2079777;28;20189;-62
2022/09/27 03:13:47;;;;;;;10.50;9.50;;;;;;;18.55;100.00;100364.66;2079997;28;20199;-62
2022/09/27 03:14:48;;;;;;;10.23;9.30;;;;;;;18.63;100.00;100376.97;2079156;28;20268;-62
2022/09/27 03:15:49;;;;;;;10.63;9.73;;;;;;;18.63;100.00;100381.84;2079741;28;20189;-62
2022/09/27 03:16:49;;;;;;;10.60;9.70;;;;;;;18.60;100.00;100382.81;2079911;28;20479;-62
2022/09/27 03:17:50;;;;;;;11.17;10.10;;;;;;;18.61;100.00;100385.13;2079640;28;20686;-62
2022/09/27 03:18:50;;;;;;;10.17;9.33;;;;;;;18.59;100.00;100381.28;2079296;28;20450;-62
2022/09/27 03:19:51;;;;;;;10.60;9.70;;;;;;;18.11;100.00;100318.44;2080581;28;20184;-62
2022/09/27 03:20:52;;;;;;;10.57;9.67;;;;;;;18.60;100.00;100388.44;2079665;28;20669;-62
2022/09/27 03:21:53;;;;;;;10.50;9.50;;;;;;;18.60;100.00;100391.25;2079991;28;20670;-62
2022/09/27 03:22:55;;;;;;;10.80;9.90;;;;;;;18.60;100.00;100383.59;2079918;28;20805;-62
2022/09/27 03:23:55;;;;;;;11.33;10.23;;;;;;;18.53;100.00;100375.59;2079123;28;20664;-62
2022/09/27 03:24:56;;;;;;;11.37;10.40;;;;;;;18.57;100.00;100381.03;2079445;28;20791;-62
2022/09/27 03:25:56;;;;;;;11.00;10.03;;;;;;;18.55;100.00;100378.69;2079671;28;20251;-63
2022/09/27 03:26:57;;;;;;;12.07;10.60;;;;;;;18.54;100.00;100382.00;2079539;28;20264;-62
2022/09/27 03:27:57;;;;;;;10.87;9.87;;;;;;;18.54;100.00;100382.78;2079546;28;20188;-62
2022/09/27 03:28:58;;;;;;;11.73;10.70;;;;;;;18.56;100.00;100377.44;2080131;28;20203;-62
2022/09/27 03:29:58;;;;;;;11.70;10.50;;;;;;;18.58;100.00;100372.06;2079875;28;20237;-62
2022/09/27 03:30:59;;;;;;;11.00;10.10;;;;;;;18.60;100.00;100375.19;2079517;28;20211;-62
2022/09/27 03:31:59;;;;;;;10.67;9.77;;;;;;;18.59;100.00;100370.84;2079829;28;20204;-62
2022/09/27 03:33:00;;;;;;;12.00;9.50;;;;;;;18.61;100.00;100367.50;2079907;28;20211;-62
2022/09/27 03:34:00;;;;;;;10.97;10.00;;;;;;;18.62;100.00;100361.41;2079680;28;20480;-62
2022/09/27 03:35:01;;;;;;;10.97;9.87;;;;;;;18.65;100.00;100356.84;2079267;28;20222;-62
2022/09/27 03:36:02;;;;;;;10.70;9.70;;;;;;;18.63;100.00;100356.59;2079566;28;20240;-62
2022/09/27 03:37:03;;;;;;;10.57;9.67;;;;;;;18.69;100.00;100363.03;2080298;28;20268;-62
2022/09/27 03:38:04;;;;;;;10.83;9.73;;;;;;;18.72;100.00;100370.47;2079257;28;20443;-62
2022/09/27 03:39:05;;;;;;;10.37;9.47;;;;;;;18.74;100.00;100371.53;2079417;28;20218;-62
2022/09/27 03:40:06;;;;;;;10.47;9.47;;;;;;;18.73;100.00;100366.41;2079812;28;20532;-62
2022/09/27 03:41:06;;;;;;;10.37;9.47;;;;;;;18.36;100.00;100320.53;2079667;28;20445;-62
2022/09/27 03:42:07;;;;;;;11.57;10.40;;;;;;;18.12;100.00;100277.94;2079820;28;20474;-62
2022/09/27 03:43:07;;;;;;;11.50;10.37;;;;;;;18.65;100.00;100370.88;2079503;28;20185;-62
2022/09/27 03:44:08;;;;;;;10.97;9.97;;;;;;;18.66;100.00;100356.38;2079606;28;20179;-62
2022/09/27 03:45:10;;;;;;;11.43;10.27;;;;;;;18.68;100.00;100367.09;2080054;28;20436;-62
2022/09/27 03:46:10;;;;;;;10.60;9.60;;;;;;;18.70;100.00;100353.34;2080652;28;20419;-62
2022/09/27 03:47:11;;;;;;;10.67;9.77;;;;;;;17.68;100.00;100196.88;2079617;28;20439;-62
2022/09/27 03:48:12;;;;;;;11.00;10.00;;;;;;;18.60;100.00;100338.69;2078620;28;20261;-62
2022/09/27 03:49:12;;;;;;;11.10;10.10;;;;;;;18.73;100.00;100346.75;2079144;28;20706;-62
2022/09/27 03:50:13;;;;;;;10.90;9.77;;;;;;;18.72;100.00;100351.56;2079923;28;20275;-62
2022/09/27 03:51:14;;;;;;;11.43;10.37;;;;;;;18.73;100.00;100353.13;2078964;28;24061;-62
2022/09/27 03:52:15;;;;;;;10.73;9.73;;;;;;;18.75;100.00;100347.00;2079537;28;20860;-62
2022/09/27 03:53:16;;;;;;;11.53;10.40;;;;;;;18.76;100.00;100345.75;2079265;28;20184;-62
2022/09/27 03:54:16;;;;;;;10.40;9.53;;;;;;;18.73;100.00;100360.78;2079956;28;20940;-62
2022/09/27 03:55:16;;;;;;;10.57;9.57;;;;;;;18.73;100.00;100355.16;2079389;28;20181;-63
2022/09/27 03:56:17;;;;;;;10.90;10.00;;;;;;;18.74;100.00;100363.09;2079762;28;20188;-63
2022/09/27 03:57:17;;;;;;;11.13;10.13;;;;;;;18.77;100.00;100359.28;2078733;28;20196;-63
2022/09/27 03:58:18;;;;;;;10.90;9.97;;;;;;;18.77;100.00;100359.28;2079709;28;20232;-63
2022/09/27 03:59:18;;;;;;;11.03;9.93;;;;;;;18.64;100.00;100346.91;2079203;28;20694;-62
2022/09/27 04:00:19;;;;;;;10.73;9.67;;;;;;;18.77;100.00;100353.66;2079034;28;20180;-62
2022/09/27 04:01:20;;;;;;;11.10;10.00;;;;;;;18.79;100.00;100358.81;2079468;28;20658;-62
2022/09/27 04:02:20;;;;;;;10.60;9.73;;;;;;;18.78;100.00;100360.06;2080287;28;20176;-62
2022/09/27 04:03:21;;;;;;;11.30;10.40;;;;;;;18.51;100.00;100322.00;2079411;28;20848;-62
2022/09/27 04:04:21;;;;;;;10.57;9.67;;;;;;;18.76;100.00;100354.16;2079321;28;20203;-62
2022/09/27 04:05:23;;;;;;;15.37;10.50;;;;;;;18.76;100.00;100357.75;2079561;28;20634;-62
2022/09/27 04:06:25;;;;;;;10.63;9.37;;;;;;;18.76;100.00;100354.94;2079573;28;20574;-62
2022/09/27 04:07:26;;;;;;;10.67;9.57;;;;;;;18.76;100.00;100359.78;2079123;28;20459;-62
2022/09/27 04:08:26;;;;;;;10.80;9.80;;;;;;;18.74;100.00;100359.50;2079401;28;21668;-62
2022/09/27 04:09:27;;;;;;;11.73;10.43;;;;;;;18.68;100.00;100342.59;2079079;28;20314;-62
2022/09/27 04:10:27;;;;;;;11.10;10.20;;;;;;;18.77;100.00;100352.91;2079425;28;20188;-62
2022/09/27 04:11:28;;;;;;;11.07;10.07;;;;;;;18.62;100.00;100327.00;2078322;28;20200;-62
2022/09/27 04:12:28;;;;;;;10.97;9.63;;;;;;;18.73;100.00;100341.88;2078233;28;20484;-62
2022/09/27 04:13:29;;;;;;;10.60;9.80;;;;;;;18.76;100.00;100348.53;2078498;28;20198;-63
2022/09/27 04:14:29;;;;;;;10.93;10.03;;;;;;;18.76;100.00;100349.34;2078970;28;20195;-62
2022/09/27 04:15:30;;;;;;;11.33;10.23;;;;;;;18.77;100.00;100345.25;2079500;28;20227;-62
2022/09/27 04:16:31;;;;;;;14.73;10.70;;;;;;;18.64;100.00;100324.44;2078814;28;20195;-62
2022/09/27 04:17:32;;;;;;;11.13;10.13;;;;;;;18.72;100.00;100340.34;2078677;28;20190;-62
2022/09/27 04:18:32;;;;;;;13.13;11.17;;;;;;;18.55;100.00;100327.41;2079527;28;20459;-62
2022/09/27 04:19:33;;;;;;;11.27;10.37;;;;;;;18.62;100.00;100327.00;2079565;28;20237;-63
2022/09/27 04:20:35;;;;;;;11.77;10.57;;;;;;;18.61;100.00;100320.59;2079292;28;20254;-63
2022/09/27 04:21:35;;;;;;;11.83;10.67;;;;;;;18.62;100.00;100327.00;2079670;28;20188;-62
2022/09/27 04:22:40;;;;;;;12.27;11.27;;;;;;;18.57;100.00;100322.84;2078392;28;20446;-62
2022/09/27 04:23:41;;;;;;;11.83;10.83;;;;;;;18.57;100.00;100322.09;2079427;28;20283;-62
2022/09/27 04:24:41;;;;;;;12.20;11.10;;;;;;;18.57;100.00;100317.22;2078833;28;20436;-62
2022/09/27 04:25:42;;;;;;;11.83;10.63;;;;;;;18.59;100.00;100317.53;2079651;28;20303;-62
2022/09/27 04:26:42;;;;;;;12.13;11.03;;;;;;;18.62;100.00;100312.94;2078924;28;20306;-62
2022/09/27 04:27:44;;;;;;;12.47;11.27;;;;;;;18.16;100.00;100239.22;2078461;28;20181;-62
2022/09/27 04:28:45;;;;;;;12.00;10.80;;;;;;;18.64;100.00;100305.59;2079514;28;20212;-62
2022/09/27 04:29:45;;;;;;;11.63;10.43;;;;;;;18.65;100.00;100309.91;2078451;28;20997;-62
2022/09/27 04:30:46;;;;;;;12.43;11.10;;;;;;;18.65;100.00;100295.09;2078889;28;20639;-62
2022/09/27 04:31:46;;;;;;;12.13;11.10;;;;;;;18.23;100.00;100247.97;2079126;28;20257;-62
2022/09/27 04:32:47;;;;;;;11.60;10.60;;;;;;;18.62;100.00;100302.47;2078667;28;20227;-62
2022/09/27 04:33:47;;;;;;;12.13;11.03;;;;;;;18.29;100.00;100249.56;2078770;28;20200;-62
2022/09/27 04:36:25;;;;;;;11.70;10.53;;;;;;;18.67;100.00;100301.03;2069668;28;20336;-62
2022/09/27 04:37:26;;;;;;;11.70;10.70;;;;;;;18.61;100.00;100294.56;2078421;28;20438;-62
2022/09/27 04:38:26;;;;;;;12.23;11.07;;;;;;;18.39;100.00;100269.06;2078202;28;20443;-62
2022/09/27 04:39:27;;;;;;;13.07;11.77;;;;;;;18.52;100.00;100286.31;2078024;28;20733;-62
2022/09/27 04:40:28;;;;;;;12.67;11.50;;;;;;;18.52;100.00;100295.50;2078909;28;20414;-62
2022/09/27 04:41:28;;;;;;;12.37;11.30;;;;;;;18.56;100.00;100298.06;2078937;28;20195;-62
2022/09/27 04:42:29;;;;;;;13.47;11.97;;;;;;;18.58;100.00;100295.56;2078367;28;20177;-62
2022/09/27 04:43:29;;;;;;;19.67;17.80;;;;;;;18.59;100.00;100292.25;2076641;28;20192;-62
2022/09/27 04:44:30;;;;;;;12.67;11.37;;;;;;;18.61;100.00;100325.41;2076458;28;20193;-62
2022/09/27 04:45:30;;;;;;;12.77;11.60;;;;;;;18.55;100.00;100283.28;2067273;28;20649;-62
2022/09/27 04:46:31;;;;;;;12.43;11.23;;;;;;;18.64;100.00;100294.34;2069450;28;20193;-62
2022/09/27 04:47:32;;;;;;;24.97;22.63;;;;;;;18.67;100.00;100301.03;2073051;28;20192;-62
2022/09/27 04:48:33;;;;;;;14.57;13.17;;;;;;;18.63;100.00;100289.97;2069895;28;20192;-62
2022/09/27 04:49:34;;;;;;;12.27;11.10;;;;;;;18.65;100.00;100303.53;2074601;28;20510;-62
2022/09/27 04:50:34;;;;;;;12.27;10.97;;;;;;;18.66;100.00;100293.84;2066565;28;20197;-62
2022/09/27 04:51:35;;;;;;;12.23;11.20;;;;;;;17.60;100.00;100148.09;2069234;28;20388;-62
2022/09/27 04:52:36;;;;;;;12.10;11.00;;;;;;;18.61;100.00;100300.94;2071347;28;20672;-62
2022/09/27 04:53:36;;;;;;;11.10;10.20;;;;;;;18.14;100.00;100220.09;2073027;28;20181;-62
2022/09/27 04:54:37;;;;;;;11.53;10.53;;;;;;;18.07;100.00;100211.34;2075732;28;20637;-62
2022/09/27 04:55:37;;;;;;;10.97;9.97;;;;;;;18.01;100.00;100200.03;2069346;28;20220;-62
2022/09/27 04:56:38;;;;;;;11.63;10.70;;;;;;;18.41;100.00;100264.50;2072771;28;20212;-62
2022/09/27 04:57:38;;;;;;;12.67;11.57;;;;;;;18.46;100.00;100277.03;2064370;28;20252;-62
2022/09/27 04:58:39;;;;;;;13.57;12.27;;;;;;;18.44;100.00;100282.38;2074724;28;20996;-62
2022/09/27 04:59:40;;;;;;;13.37;12.07;;;;;;;18.49;100.00;100281.69;2071733;28;20200;-62